sensor_id;sensor_type;location;lat;lon;timestamp;temperature;humidity
9939;DHT22;5008;50.656;7.188;2023-12-20T05:01:44;7.00;99.90
9939;DHT22;5008;50.656;7.188;2023-12-20T05:04:11;7.00;99.90
9939;DHT22;5008;50.656;7.188;2023-12-20T05:06:38;7.00;99.90
9939;DHT22;5008;50.656;7.188;2023-12-20T05:09:05;7.00;99.90
9939;DHT22;5008;50.656;7.188;2023-12-20T05:11:32;7.00;99.90
9939;DHT22;5008;50.656;7.188;2023-12-20T05:13:58;7.00;99.90
9939;DHT22;5008;50.656;7.188;2023-12-20T05:16:25;7.00;99.90
9939;DHT22;5008;50.656;7.188;2023-12-20T05:18:53;6.90;99.90
9939;DHT22;5008;50.656;7.188;2023-12-20T05:21:20;7.00;99.90
9939;DHT22;5008;50.656;7.188;2023-12-20T05:23:48;6.90;99.90
9939;DHT22;5008;50.656;7.188;2023-12-20T05:26:14;6.90;99.90
9939;DHT22;5008;50.656;7.188;2023-12-20T05:28:41;6.90;99.90
9939;DHT22;5008;50.656;7.188;2023-12-20T05:31:08;6.80;99.90
9939;DHT22;5008;50.656;7.188;2023-12-20T05:33:35;6.90;99.90
9939;DHT22;5008;50.656;7.188;2023-12-20T05:36:04;6.90;99.90
9939;DHT22;5008;50.656;7.188;2023-12-20T05:38:30;7.00;99.90
9939;DHT22;5008;50.656;7.188;2023-12-20T05:40:57;6.90;99.90
9939;DHT22;5008;50.656;7.188;2023-12-20T05:43:24;6.80;99.90
9939;DHT22;5008;50.656;7.188;2023-12-20T05:45:50;6.70;99.90
9939;DHT22;5008;50.656;7.188;2023-12-20T05:48:17;6.70;99.90
9939;DHT22;5008;50.656;7.188;2023-12-20T05:50:44;6.70;99.90
9939;DHT22;5008;50.656;7.188;2023-12-20T05:53:12;6.70;99.90
9939;DHT22;5008;50.656;7.188;2023-12-20T05:55:46;6.60;99.90
9939;DHT22;5008;50.656;7.188;2023-12-20T05:58:12;6.70;99.90
9939;DHT22;5008;50.656;7.188;2023-12-20T06:00:39;6.60;99.90
9939;DHT22;5008;50.656;7.188;2023-12-20T06:03:06;6.60;99.90
9939;DHT22;5008;50.656;7.188;2023-12-20T06:05:33;6.70;99.90
9939;DHT22;5008;50.656;7.188;2023-12-20T06:07:59;6.70;99.90
9939;DHT22;5008;50.656;7.188;2023-12-20T06:10:29;6.60;99.90
9939;DHT22;5008;50.656;7.188;2023-12-20T06:12:56;6.70;99.90
9939;DHT22;5008;50.656;7.188;2023-12-20T06:15:24;6.70;99.90
9939;DHT22;5008;50.656;7.188;2023-12-20T06:17:51;6.70;99.90
9939;DHT22;5008;50.656;7.188;2023-12-20T06:20:17;6.60;99.90
9939;DHT22;5008;50.656;7.188;2023-12-20T06:22:44;6.60;99.90
9939;DHT22;5008;50.656;7.188;2023-12-20T06:25:11;6.60;99.90
9939;DHT22;5008;50.656;7.188;2023-12-20T06:27:39;6.60;99.90
9939;DHT22;5008;50.656;7.188;2023-12-20T06:30:07;6.50;99.90
9939;DHT22;5008;50.656;7.188;2023-12-20T06:32:35;6.50;99.90
9939;DHT22;5008;50.656;7.188;2023-12-20T06:35:04;6.40;99.90
9939;DHT22;5008;50.656;7.188;2023-12-20T06:37:31;6.40;99.90
9939;DHT22;5008;50.656;7.188;2023-12-20T06:39:58;6.40;99.90
9939;DHT22;5008;50.656;7.188;2023-12-20T06:42:30;6.60;99.90
9939;DHT22;5008;50.656;7.188;2023-12-20T06:44:58;6.60;99.90
9939;DHT22;5008;50.656;7.188;2023-12-20T06:47:25;6.50;99.90
9939;DHT22;5008;50.656;7.188;2023-12-20T06:49:52;6.40;99.90
9939;DHT22;5008;50.656;7.188;2023-12-20T06:52:18;6.50;99.90
9939;DHT22;5008;50.656;7.188;2023-12-20T06:54:45;6.50;99.90
9939;DHT22;5008;50.656;7.188;2023-12-20T06:57:12;6.60;99.90
9939;DHT22;5008;50.656;7.188;2023-12-20T06:59:39;6.70;99.90
9939;DHT22;5008;50.656;7.188;2023-12-20T07:02:08;6.80;99.90
9939;DHT22;5008;50.656;7.188;2023-12-20T07:04:39;6.80;99.90
9939;DHT22;5008;50.656;7.188;2023-12-20T07:07:06;6.80;99.90
9939;DHT22;5008;50.656;7.188;2023-12-20T07:09:33;6.90;99.90
9939;DHT22;5008;50.656;7.188;2023-12-20T07:12:00;6.90;99.90
9939;DHT22;5008;50.656;7.188;2023-12-20T07:14:26;6.80;99.90
9939;DHT22;5008;50.656;7.188;2023-12-20T07:16:55;6.80;99.90
9939;DHT22;5008;50.656;7.188;2023-12-20T07:19:23;6.80;99.90
9939;DHT22;5008;50.656;7.188;2023-12-20T07:21:50;6.90;99.90
9939;DHT22;5008;50.656;7.188;2023-12-20T07:24:17;7.00;99.90
9939;DHT22;5008;50.656;7.188;2023-12-20T07:26:44;6.90;99.90
9939;DHT22;5008;50.656;7.188;2023-12-20T07:29:11;6.90;99.90
9939;DHT22;5008;50.656;7.188;2023-12-20T07:31:37;7.00;99.90
9939;DHT22;5008;50.656;7.188;2023-12-20T07:34:04;7.00;99.90
9939;DHT22;5008;50.656;7.188;2023-12-20T07:36:37;6.80;99.90
9939;DHT22;5008;50.656;7.188;2023-12-20T07:39:08;6.90;99.90
9939;DHT22;5008;50.656;7.188;2023-12-20T07:41:35;7.00;99.90
9939;DHT22;5008;50.656;7.188;2023-12-20T07:44:03;7.10;99.90
9939;DHT22;5008;50.656;7.188;2023-12-20T07:46:30;7.10;99.90
9939;DHT22;5008;50.656;7.188;2023-12-20T07:48:57;7.20;99.90
9939;DHT22;5008;50.656;7.188;2023-12-20T07:51:24;7.20;99.90
9939;DHT22;5008;50.656;7.188;2023-12-20T07:53:52;7.20;99.90
9939;DHT22;5008;50.656;7.188;2023-12-20T07:56:20;7.20;99.90
9939;DHT22;5008;50.656;7.188;2023-12-20T07:58:46;7.20;99.90
9939;DHT22;5008;50.656;7.188;2023-12-20T08:01:16;7.20;99.90
9939;DHT22;5008;50.656;7.188;2023-12-20T08:03:43;7.20;99.90
9939;DHT22;5008;50.656;7.188;2023-12-20T08:06:09;7.20;99.90
9939;DHT22;5008;50.656;7.188;2023-12-20T08:08:36;7.20;99.90
9939;DHT22;5008;50.656;7.188;2023-12-20T08:11:04;7.20;99.90
9939;DHT22;5008;50.656;7.188;2023-12-20T08:13:31;7.30;99.90
9939;DHT22;5008;50.656;7.188;2023-12-20T08:15:58;7.30;99.90
9939;DHT22;5008;50.656;7.188;2023-12-20T08:18:25;7.30;99.90
9939;DHT22;5008;50.656;7.188;2023-12-20T08:20:51;7.20;99.90
9939;DHT22;5008;50.656;7.188;2023-12-20T08:23:19;7.20;99.90
9939;DHT22;5008;50.656;7.188;2023-12-20T08:25:53;7.30;99.90
9939;DHT22;5008;50.656;7.188;2023-12-20T08:28:22;7.30;99.90
9939;DHT22;5008;50.656;7.188;2023-12-20T08:30:48;7.30;99.90
9939;DHT22;5008;50.656;7.188;2023-12-20T08:33:19;7.40;99.90
9939;DHT22;5008;50.656;7.188;2023-12-20T08:35:46;7.40;99.90
9939;DHT22;5008;50.656;7.188;2023-12-20T08:38:12;7.40;99.90
9939;DHT22;5008;50.656;7.188;2023-12-20T08:40:39;7.40;99.90
9939;DHT22;5008;50.656;7.188;2023-12-20T08:43:06;7.40;99.90
9939;DHT22;5008;50.656;7.188;2023-12-20T08:45:35;7.40;99.90
9939;DHT22;5008;50.656;7.188;2023-12-20T08:48:02;7.50;99.90
9939;DHT22;5008;50.656;7.188;2023-12-20T08:50:29;7.50;99.90
9939;DHT22;5008;50.656;7.188;2023-12-20T08:52:56;7.40;99.90
9939;DHT22;5008;50.656;7.188;2023-12-20T08:55:23;7.60;99.90
9939;DHT22;5008;50.656;7.188;2023-12-20T08:57:49;7.60;99.90
9939;DHT22;5008;50.656;7.188;2023-12-20T09:00:17;7.50;99.90
9939;DHT22;5008;50.656;7.188;2023-12-20T09:02:47;7.60;99.90
9939;DHT22;5008;50.656;7.188;2023-12-20T09:05:14;7.40;99.90
9939;DHT22;5008;50.656;7.188;2023-12-20T09:07:40;7.40;99.90
9939;DHT22;5008;50.656;7.188;2023-12-20T09:10:07;7.40;99.90
9939;DHT22;5008;50.656;7.188;2023-12-20T09:12:40;7.40;99.90
9939;DHT22;5008;50.656;7.188;2023-12-20T09:15:08;7.40;99.90
9939;DHT22;5008;50.656;7.188;2023-12-20T09:17:35;7.60;99.90
9939;DHT22;5008;50.656;7.188;2023-12-20T09:20:04;7.60;99.90
9939;DHT22;5008;50.656;7.188;2023-12-20T09:22:32;7.60;99.90
9939;DHT22;5008;50.656;7.188;2023-12-20T09:24:59;7.70;99.90
9939;DHT22;5008;50.656;7.188;2023-12-20T09:27:32;7.70;99.90
9939;DHT22;5008;50.656;7.188;2023-12-20T09:29:59;7.80;99.90
9939;DHT22;5008;50.656;7.188;2023-12-20T09:32:26;7.80;99.90
9939;DHT22;5008;50.656;7.188;2023-12-20T09:34:53;7.80;99.90
9939;DHT22;5008;50.656;7.188;2023-12-20T09:37:21;7.80;99.90
9939;DHT22;5008;50.656;7.188;2023-12-20T09:39:53;7.90;99.90
9939;DHT22;5008;50.656;7.188;2023-12-20T09:42:24;8.00;99.90
9939;DHT22;5008;50.656;7.188;2023-12-20T09:44:53;8.10;99.90
9939;DHT22;5008;50.656;7.188;2023-12-20T09:47:20;8.10;99.90
9939;DHT22;5008;50.656;7.188;2023-12-20T09:49:49;8.20;99.90
9939;DHT22;5008;50.656;7.188;2023-12-20T09:52:18;8.10;99.90
9939;DHT22;5008;50.656;7.188;2023-12-20T09:54:48;8.20;99.90
9939;DHT22;5008;50.656;7.188;2023-12-20T09:57:16;8.20;99.90
9939;DHT22;5008;50.656;7.188;2023-12-20T09:59:43;8.20;99.90
9939;DHT22;5008;50.656;7.188;2023-12-20T10:02:13;8.20;99.90
9939;DHT22;5008;50.656;7.188;2023-12-20T10:04:45;8.20;99.90
9939;DHT22;5008;50.656;7.188;2023-12-20T10:07:13;8.20;99.90
9939;DHT22;5008;50.656;7.188;2023-12-20T10:09:40;8.10;99.90
9939;DHT22;5008;50.656;7.188;2023-12-20T10:12:10;8.10;99.90
9939;DHT22;5008;50.656;7.188;2023-12-20T10:14:38;8.10;99.90
9939;DHT22;5008;50.656;7.188;2023-12-20T10:17:06;8.10;99.90
9939;DHT22;5008;50.656;7.188;2023-12-20T10:19:32;8.20;99.90
9939;DHT22;5008;50.656;7.188;2023-12-20T10:21:59;8.20;99.90
9939;DHT22;5008;50.656;7.188;2023-12-20T10:24:28;8.10;99.90
9939;DHT22;5008;50.656;7.188;2023-12-20T10:27:02;8.10;99.90
9939;DHT22;5008;50.656;7.188;2023-12-20T10:29:33;8.00;99.90
9939;DHT22;5008;50.656;7.188;2023-12-20T10:32:14;8.10;99.90
9939;DHT22;5008;50.656;7.188;2023-12-20T10:34:47;8.10;99.90
9939;DHT22;5008;50.656;7.188;2023-12-20T10:37:14;8.00;99.90
9939;DHT22;5008;50.656;7.188;2023-12-20T10:39:50;8.10;99.90
9939;DHT22;5008;50.656;7.188;2023-12-20T10:42:19;8.00;99.90
9939;DHT22;5008;50.656;7.188;2023-12-20T10:44:49;8.10;99.90
9939;DHT22;5008;50.656;7.188;2023-12-20T10:47:16;8.10;99.90
9939;DHT22;5008;50.656;7.188;2023-12-20T10:49:44;8.20;99.90
9939;DHT22;5008;50.656;7.188;2023-12-20T10:52:12;8.20;99.90
9939;DHT22;5008;50.656;7.188;2023-12-20T10:54:39;8.20;99.90
9939;DHT22;5008;50.656;7.188;2023-12-20T10:57:08;8.30;99.90
9939;DHT22;5008;50.656;7.188;2023-12-20T10:59:37;8.30;99.90
9939;DHT22;5008;50.656;7.188;2023-12-20T11:02:05;8.40;99.90
9939;DHT22;5008;50.656;7.188;2023-12-20T11:04:39;8.30;99.90
9939;DHT22;5008;50.656;7.188;2023-12-20T11:07:16;8.20;99.90
9939;DHT22;5008;50.656;7.188;2023-12-20T11:09:49;8.30;99.90
9939;DHT22;5008;50.656;7.188;2023-12-20T11:12:24;8.30;99.90
9939;DHT22;5008;50.656;7.188;2023-12-20T11:14:54;8.50;99.90
9939;DHT22;5008;50.656;7.188;2023-12-20T11:17:24;8.40;99.90
9939;DHT22;5008;50.656;7.188;2023-12-20T11:20:08;8.40;99.90
9939;DHT22;5008;50.656;7.188;2023-12-20T11:22:38;8.40;99.90
9939;DHT22;5008;50.656;7.188;2023-12-20T11:25:08;8.50;99.90
9939;DHT22;5008;50.656;7.188;2023-12-20T11:27:41;8.50;99.90
9939;DHT22;5008;50.656;7.188;2023-12-20T11:30:09;8.50;99.90
9939;DHT22;5008;50.656;7.188;2023-12-20T11:32:37;8.50;99.90
9939;DHT22;5008;50.656;7.188;2023-12-20T11:35:19;8.40;99.90
9939;DHT22;5008;50.656;7.188;2023-12-20T11:37:46;8.50;99.90
9939;DHT22;5008;50.656;7.188;2023-12-20T11:40:15;8.50;99.90
9939;DHT22;5008;50.656;7.188;2023-12-20T11:42:43;8.50;99.90
9939;DHT22;5008;50.656;7.188;2023-12-20T11:45:12;8.50;99.90
9939;DHT22;5008;50.656;7.188;2023-12-20T11:47:42;8.40;99.90
9939;DHT22;5008;50.656;7.188;2023-12-20T11:50:09;8.50;99.90
9939;DHT22;5008;50.656;7.188;2023-12-20T11:52:36;8.50;99.90
9939;DHT22;5008;50.656;7.188;2023-12-20T11:55:03;8.40;99.90
9939;DHT22;5008;50.656;7.188;2023-12-20T11:57:30;8.40;99.90
9939;DHT22;5008;50.656;7.188;2023-12-20T11:59:57;8.40;99.90
9939;DHT22;5008;50.656;7.188;2023-12-20T12:02:24;8.40;99.90
9939;DHT22;5008;50.656;7.188;2023-12-20T12:04:52;8.50;99.90
9939;DHT22;5008;50.656;7.188;2023-12-20T12:07:19;8.40;99.90
9939;DHT22;5008;50.656;7.188;2023-12-20T12:09:46;8.50;99.90
9939;DHT22;5008;50.656;7.188;2023-12-20T12:12:13;8.50;99.90
9939;DHT22;5008;50.656;7.188;2023-12-20T12:14:40;8.50;99.90
9939;DHT22;5008;50.656;7.188;2023-12-20T12:17:10;8.60;99.90
9939;DHT22;5008;50.656;7.188;2023-12-20T12:19:37;8.60;99.90
9939;DHT22;5008;50.656;7.188;2023-12-20T12:22:06;8.60;99.90
9939;DHT22;5008;50.656;7.188;2023-12-20T12:24:36;8.60;99.90
9939;DHT22;5008;50.656;7.188;2023-12-20T12:27:03;8.60;99.90
9939;DHT22;5008;50.656;7.188;2023-12-20T12:29:30;8.60;99.90
9939;DHT22;5008;50.656;7.188;2023-12-20T12:31:57;8.60;99.90
9939;DHT22;5008;50.656;7.188;2023-12-20T12:34:24;8.50;99.90
9939;DHT22;5008;50.656;7.188;2023-12-20T12:36:52;8.60;99.90
9939;DHT22;5008;50.656;7.188;2023-12-20T12:39:20;8.60;99.90
9939;DHT22;5008;50.656;7.188;2023-12-20T12:41:47;8.70;99.90
9939;DHT22;5008;50.656;7.188;2023-12-20T12:44:14;8.80;99.90
9939;DHT22;5008;50.656;7.188;2023-12-20T12:46:41;8.80;99.90
9939;DHT22;5008;50.656;7.188;2023-12-20T12:49:08;8.80;99.90
9939;DHT22;5008;50.656;7.188;2023-12-20T12:51:34;8.80;99.90
9939;DHT22;5008;50.656;7.188;2023-12-20T12:54:01;8.70;99.90
9939;DHT22;5008;50.656;7.188;2023-12-20T12:56:30;8.70;99.90
9939;DHT22;5008;50.656;7.188;2023-12-20T12:58:57;8.60;99.90
9939;DHT22;5008;50.656;7.188;2023-12-20T13:01:24;8.60;99.90
9939;DHT22;5008;50.656;7.188;2023-12-20T13:03:50;8.60;99.90
9939;DHT22;5008;50.656;7.188;2023-12-20T13:06:17;8.50;99.90
9939;DHT22;5008;50.656;7.188;2023-12-20T13:08:44;8.50;99.90
9939;DHT22;5008;50.656;7.188;2023-12-20T13:11:11;8.50;99.90
9939;DHT22;5008;50.656;7.188;2023-12-20T13:13:40;8.50;99.90
9939;DHT22;5008;50.656;7.188;2023-12-20T13:16:07;8.60;99.90
9939;DHT22;5008;50.656;7.188;2023-12-20T13:18:34;8.60;99.90
9939;DHT22;5008;50.656;7.188;2023-12-20T13:21:01;8.50;99.90
9939;DHT22;5008;50.656;7.188;2023-12-20T13:23:27;8.60;99.90
9939;DHT22;5008;50.656;7.188;2023-12-20T13:25:54;8.50;99.90
9939;DHT22;5008;50.656;7.188;2023-12-20T13:28:21;8.60;99.90
9939;DHT22;5008;50.656;7.188;2023-12-20T13:30:49;8.50;99.90
9939;DHT22;5008;50.656;7.188;2023-12-20T13:33:16;8.40;99.90
9939;DHT22;5008;50.656;7.188;2023-12-20T13:35:43;8.50;99.90
9939;DHT22;5008;50.656;7.188;2023-12-20T13:38:10;8.60;99.90
9939;DHT22;5008;50.656;7.188;2023-12-20T13:40:39;8.50;99.90
9939;DHT22;5008;50.656;7.188;2023-12-20T13:43:05;8.50;99.90
9939;DHT22;5008;50.656;7.188;2023-12-20T13:45:32;8.40;99.90
9939;DHT22;5008;50.656;7.188;2023-12-20T13:48:00;8.30;99.90
9939;DHT22;5008;50.656;7.188;2023-12-20T13:50:27;8.20;99.90
9939;DHT22;5008;50.656;7.188;2023-12-20T13:52:54;8.30;99.90
9939;DHT22;5008;50.656;7.188;2023-12-20T13:55:21;8.20;99.90
9939;DHT22;5008;50.656;7.188;2023-12-20T13:57:50;8.20;99.90
9939;DHT22;5008;50.656;7.188;2023-12-20T14:00:17;8.10;99.90
9939;DHT22;5008;50.656;7.188;2023-12-20T14:02:44;8.00;99.90
9939;DHT22;5008;50.656;7.188;2023-12-20T14:05:13;8.10;99.90
9939;DHT22;5008;50.656;7.188;2023-12-20T14:07:42;8.10;99.90
9939;DHT22;5008;50.656;7.188;2023-12-20T14:10:11;8.00;99.90
9939;DHT22;5008;50.656;7.188;2023-12-20T14:12:38;8.00;99.90
9939;DHT22;5008;50.656;7.188;2023-12-20T14:15:05;7.90;99.90
9939;DHT22;5008;50.656;7.188;2023-12-20T14:17:36;7.80;99.90
9939;DHT22;5008;50.656;7.188;2023-12-20T14:20:04;7.80;99.90
9939;DHT22;5008;50.656;7.188;2023-12-20T14:22:37;7.80;99.90
9939;DHT22;5008;50.656;7.188;2023-12-20T14:25:11;7.90;99.90
9939;DHT22;5008;50.656;7.188;2023-12-20T14:27:38;7.80;99.90
9939;DHT22;5008;50.656;7.188;2023-12-20T14:30:07;7.90;99.90
9939;DHT22;5008;50.656;7.188;2023-12-20T14:32:35;7.90;99.90
9939;DHT22;5008;50.656;7.188;2023-12-20T14:35:04;8.00;99.90
9939;DHT22;5008;50.656;7.188;2023-12-20T14:37:31;7.90;99.90
9939;DHT22;5008;50.656;7.188;2023-12-20T14:39:59;7.90;99.90
9939;DHT22;5008;50.656;7.188;2023-12-20T14:42:26;7.90;99.90
9939;DHT22;5008;50.656;7.188;2023-12-20T14:44:52;7.90;99.90
9939;DHT22;5008;50.656;7.188;2023-12-20T14:47:20;8.00;99.90
9939;DHT22;5008;50.656;7.188;2023-12-20T14:49:46;8.00;99.90
9939;DHT22;5008;50.656;7.188;2023-12-20T14:52:14;8.00;99.90
9939;DHT22;5008;50.656;7.188;2023-12-20T14:54:40;8.10;99.90
9939;DHT22;5008;50.656;7.188;2023-12-20T14:57:10;8.10;99.90
9939;DHT22;5008;50.656;7.188;2023-12-20T14:59:38;8.10;99.90
9939;DHT22;5008;50.656;7.188;2023-12-20T15:02:05;8.10;99.90
9939;DHT22;5008;50.656;7.188;2023-12-20T15:04:31;8.10;99.90
9939;DHT22;5008;50.656;7.188;2023-12-20T15:06:58;8.10;99.90
9939;DHT22;5008;50.656;7.188;2023-12-20T15:09:26;8.00;99.90
9939;DHT22;5008;50.656;7.188;2023-12-20T15:11:55;8.10;99.90
9939;DHT22;5008;50.656;7.188;2023-12-20T15:14:23;8.00;99.90
9939;DHT22;5008;50.656;7.188;2023-12-20T15:16:50;7.90;99.90
9939;DHT22;5008;50.656;7.188;2023-12-20T15:19:17;8.00;99.90
9939;DHT22;5008;50.656;7.188;2023-12-20T15:21:43;8.00;99.90
9939;DHT22;5008;50.656;7.188;2023-12-20T15:24:10;8.00;99.90
9939;DHT22;5008;50.656;7.188;2023-12-20T15:26:41;8.00;99.90
9939;DHT22;5008;50.656;7.188;2023-12-20T15:29:07;7.90;99.90
9939;DHT22;5008;50.656;7.188;2023-12-20T15:31:37;8.00;99.90
9939;DHT22;5008;50.656;7.188;2023-12-20T15:34:08;8.00;99.90
9939;DHT22;5008;50.656;7.188;2023-12-20T15:36:35;8.00;99.90
9939;DHT22;5008;50.656;7.188;2023-12-20T15:39:02;8.10;99.90
9939;DHT22;5008;50.656;7.188;2023-12-20T15:41:29;8.00;99.90
9939;DHT22;5008;50.656;7.188;2023-12-20T15:43:56;8.00;99.90
9939;DHT22;5008;50.656;7.188;2023-12-20T15:46:23;8.00;99.90
9939;DHT22;5008;50.656;7.188;2023-12-20T15:48:51;8.00;99.90
9939;DHT22;5008;50.656;7.188;2023-12-20T15:51:20;8.00;99.90
9939;DHT22;5008;50.656;7.188;2023-12-20T15:53:46;7.90;99.90
9939;DHT22;5008;50.656;7.188;2023-12-20T15:56:13;7.90;99.90
9939;DHT22;5008;50.656;7.188;2023-12-20T15:58:40;7.90;99.90
9939;DHT22;5008;50.656;7.188;2023-12-20T16:01:06;7.90;99.90
9939;DHT22;5008;50.656;7.188;2023-12-20T16:03:34;8.00;99.90
9939;DHT22;5008;50.656;7.188;2023-12-20T16:06:02;8.10;99.90
9939;DHT22;5008;50.656;7.188;2023-12-20T16:08:29;8.00;99.90
9939;DHT22;5008;50.656;7.188;2023-12-20T16:10:57;8.10;99.90
9939;DHT22;5008;50.656;7.188;2023-12-20T16:13:24;8.00;99.90
9939;DHT22;5008;50.656;7.188;2023-12-20T16:15:51;8.10;99.90
9939;DHT22;5008;50.656;7.188;2023-12-20T16:18:19;8.10;99.90
9939;DHT22;5008;50.656;7.188;2023-12-20T16:20:46;8.20;99.90
9939;DHT22;5008;50.656;7.188;2023-12-20T16:23:14;8.20;99.90
9939;DHT22;5008;50.656;7.188;2023-12-20T16:25:42;8.20;99.90
9939;DHT22;5008;50.656;7.188;2023-12-20T16:28:09;8.10;99.90
9939;DHT22;5008;50.656;7.188;2023-12-20T16:30:36;8.20;99.90
9939;DHT22;5008;50.656;7.188;2023-12-20T16:33:03;8.10;99.90
9939;DHT22;5008;50.656;7.188;2023-12-20T16:35:30;8.10;99.90
9939;DHT22;5008;50.656;7.188;2023-12-20T16:37:57;8.10;99.90
9939;DHT22;5008;50.656;7.188;2023-12-20T16:40:25;8.10;99.90
9939;DHT22;5008;50.656;7.188;2023-12-20T16:42:52;8.00;99.90
9939;DHT22;5008;50.656;7.188;2023-12-20T16:45:21;8.00;99.90
9939;DHT22;5008;50.656;7.188;2023-12-20T16:47:48;8.10;99.90
9939;DHT22;5008;50.656;7.188;2023-12-20T16:50:15;8.10;99.90
9939;DHT22;5008;50.656;7.188;2023-12-20T16:52:42;7.90;99.90
9939;DHT22;5008;50.656;7.188;2023-12-20T16:55:10;7.90;99.90
9939;DHT22;5008;50.656;7.188;2023-12-20T16:57:39;7.90;99.90
9939;DHT22;5008;50.656;7.188;2023-12-20T17:00:07;7.90;99.90
9939;DHT22;5008;50.656;7.188;2023-12-20T17:02:34;8.10;99.90
9939;DHT22;5008;50.656;7.188;2023-12-20T17:05:01;8.10;99.90
9939;DHT22;5008;50.656;7.188;2023-12-20T17:07:27;8.10;99.90
9939;DHT22;5008;50.656;7.188;2023-12-20T17:09:54;8.00;99.90
9939;DHT22;5008;50.656;7.188;2023-12-20T17:12:21;7.90;99.90
9939;DHT22;5008;50.656;7.188;2023-12-20T17:14:51;7.90;99.90
9939;DHT22;5008;50.656;7.188;2023-12-20T17:17:20;7.80;99.90
9939;DHT22;5008;50.656;7.188;2023-12-20T17:19:47;7.80;99.90
9939;DHT22;5008;50.656;7.188;2023-12-20T17:22:14;7.80;99.90
9939;DHT22;5008;50.656;7.188;2023-12-20T17:24:41;7.80;99.90
9939;DHT22;5008;50.656;7.188;2023-12-20T17:27:07;7.90;99.90
9939;DHT22;5008;50.656;7.188;2023-12-20T17:29:34;7.90;99.90
9939;DHT22;5008;50.656;7.188;2023-12-20T17:32:02;7.90;99.90
9939;DHT22;5008;50.656;7.188;2023-12-20T17:34:30;7.90;99.90
9939;DHT22;5008;50.656;7.188;2023-12-20T17:36:57;7.90;99.90
9939;DHT22;5008;50.656;7.188;2023-12-20T17:39:24;7.80;99.90
9939;DHT22;5008;50.656;7.188;2023-12-20T17:41:50;7.80;99.90
9939;DHT22;5008;50.656;7.188;2023-12-20T17:44:20;7.80;99.90
9939;DHT22;5008;50.656;7.188;2023-12-20T17:46:47;7.80;99.90
9939;DHT22;5008;50.656;7.188;2023-12-20T17:49:16;7.90;99.90
9939;DHT22;5008;50.656;7.188;2023-12-20T17:51:44;7.90;99.90
9939;DHT22;5008;50.656;7.188;2023-12-20T17:54:12;7.90;99.90
9939;DHT22;5008;50.656;7.188;2023-12-20T17:56:39;7.90;99.90
9939;DHT22;5008;50.656;7.188;2023-12-20T17:59:06;8.00;99.90
9939;DHT22;5008;50.656;7.188;2023-12-20T18:01:33;8.00;99.90
9939;DHT22;5008;50.656;7.188;2023-12-20T18:04:00;7.90;99.90
9939;DHT22;5008;50.656;7.188;2023-12-20T18:06:28;7.90;99.90
9939;DHT22;5008;50.656;7.188;2023-12-20T18:08:55;8.00;99.90
9939;DHT22;5008;50.656;7.188;2023-12-20T18:11:21;7.90;99.90
9939;DHT22;5008;50.656;7.188;2023-12-20T18:13:48;7.90;99.90
9939;DHT22;5008;50.656;7.188;2023-12-20T18:16:15;7.80;99.90
9939;DHT22;5008;50.656;7.188;2023-12-20T18:18:42;7.80;99.90
9939;DHT22;5008;50.656;7.188;2023-12-20T18:21:09;7.80;99.90
9939;DHT22;5008;50.656;7.188;2023-12-20T18:23:45;7.80;99.90
9939;DHT22;5008;50.656;7.188;2023-12-20T18:26:12;7.80;99.90
9939;DHT22;5008;50.656;7.188;2023-12-20T18:28:39;7.80;99.90
9939;DHT22;5008;50.656;7.188;2023-12-20T18:31:06;7.80;99.90
9939;DHT22;5008;50.656;7.188;2023-12-20T18:33:32;7.80;99.90
9939;DHT22;5008;50.656;7.188;2023-12-20T18:36:01;7.80;99.90
9939;DHT22;5008;50.656;7.188;2023-12-20T18:38:28;7.90;99.90
9939;DHT22;5008;50.656;7.188;2023-12-20T18:40:59;7.80;99.90
9939;DHT22;5008;50.656;7.188;2023-12-20T18:43:26;7.80;99.90
9939;DHT22;5008;50.656;7.188;2023-12-20T18:45:53;7.80;99.90
9939;DHT22;5008;50.656;7.188;2023-12-20T18:48:20;7.70;99.90
9939;DHT22;5008;50.656;7.188;2023-12-20T18:50:47;7.70;99.90
9939;DHT22;5008;50.656;7.188;2023-12-20T18:53:13;7.70;99.90
9939;DHT22;5008;50.656;7.188;2023-12-20T18:55:42;7.70;99.90
9939;DHT22;5008;50.656;7.188;2023-12-20T18:58:10;7.70;99.90
9939;DHT22;5008;50.656;7.188;2023-12-20T19:00:39;7.80;99.90
9939;DHT22;5008;50.656;7.188;2023-12-20T19:03:06;7.80;99.90
9939;DHT22;5008;50.656;7.188;2023-12-20T19:05:33;7.80;99.90
9939;DHT22;5008;50.656;7.188;2023-12-20T19:08:00;7.80;99.90
9939;DHT22;5008;50.656;7.188;2023-12-20T19:10:26;7.80;99.90
9939;DHT22;5008;50.656;7.188;2023-12-20T19:12:53;7.80;99.90
9939;DHT22;5008;50.656;7.188;2023-12-20T19:15:21;7.70;99.90
9939;DHT22;5008;50.656;7.188;2023-12-20T19:17:48;7.70;99.90
9939;DHT22;5008;50.656;7.188;2023-12-20T19:20:15;7.80;99.90
9939;DHT22;5008;50.656;7.188;2023-12-20T19:22:41;7.70;99.90
9939;DHT22;5008;50.656;7.188;2023-12-20T19:25:09;7.70;99.90
9939;DHT22;5008;50.656;7.188;2023-12-20T19:27:36;7.70;99.90
9939;DHT22;5008;50.656;7.188;2023-12-20T19:30:03;7.70;99.90
9939;DHT22;5008;50.656;7.188;2023-12-20T19:32:31;7.70;99.90
9939;DHT22;5008;50.656;7.188;2023-12-20T19:34:59;7.70;99.90
9939;DHT22;5008;50.656;7.188;2023-12-20T19:37:25;7.70;99.90
9939;DHT22;5008;50.656;7.188;2023-12-20T19:39:52;7.80;99.90
9939;DHT22;5008;50.656;7.188;2023-12-20T19:42:19;7.70;99.90
9939;DHT22;5008;50.656;7.188;2023-12-20T19:44:46;7.70;99.90
9939;DHT22;5008;50.656;7.188;2023-12-20T19:47:12;7.70;99.90
9939;DHT22;5008;50.656;7.188;2023-12-20T19:49:41;7.80;99.90
9939;DHT22;5008;50.656;7.188;2023-12-20T19:52:07;7.80;99.90
9939;DHT22;5008;50.656;7.188;2023-12-20T19:54:34;7.80;99.90
9939;DHT22;5008;50.656;7.188;2023-12-20T19:57:01;7.80;99.90
9939;DHT22;5008;50.656;7.188;2023-12-20T19:59:28;7.80;99.90
9939;DHT22;5008;50.656;7.188;2023-12-20T20:01:55;7.80;99.90
9939;DHT22;5008;50.656;7.188;2023-12-20T20:04:21;7.90;99.90
9939;DHT22;5008;50.656;7.188;2023-12-20T20:06:50;7.90;99.90
9939;DHT22;5008;50.656;7.188;2023-12-20T20:09:17;8.00;99.90
9939;DHT22;5008;50.656;7.188;2023-12-20T20:11:44;8.00;99.90
9939;DHT22;5008;50.656;7.188;2023-12-20T20:14:11;8.10;99.90
9939;DHT22;5008;50.656;7.188;2023-12-20T20:16:38;8.10;99.90
9939;DHT22;5008;50.656;7.188;2023-12-20T20:19:05;8.20;99.90
9939;DHT22;5008;50.656;7.188;2023-12-20T20:21:32;8.20;99.90
9939;DHT22;5008;50.656;7.188;2023-12-20T20:24:00;8.30;99.90
9939;DHT22;5008;50.656;7.188;2023-12-20T20:26:26;8.40;99.90
9939;DHT22;5008;50.656;7.188;2023-12-20T20:28:53;8.50;99.90
9939;DHT22;5008;50.656;7.188;2023-12-20T20:31:20;8.60;99.90
9939;DHT22;5008;50.656;7.188;2023-12-20T20:33:47;8.60;99.90
9939;DHT22;5008;50.656;7.188;2023-12-20T20:36:14;8.60;99.90
9939;DHT22;5008;50.656;7.188;2023-12-20T20:38:40;8.70;99.90
9939;DHT22;5008;50.656;7.188;2023-12-20T20:41:08;8.70;99.90
9939;DHT22;5008;50.656;7.188;2023-12-20T20:43:35;8.80;99.90
9939;DHT22;5008;50.656;7.188;2023-12-20T20:46:03;8.80;99.90
9939;DHT22;5008;50.656;7.188;2023-12-20T20:48:30;8.80;99.90
9939;DHT22;5008;50.656;7.188;2023-12-20T20:50:56;8.70;99.90
9939;DHT22;5008;50.656;7.188;2023-12-20T20:53:24;8.70;99.90
9939;DHT22;5008;50.656;7.188;2023-12-20T20:55:50;8.60;99.90
9939;DHT22;5008;50.656;7.188;2023-12-20T20:58:18;8.60;99.90
9939;DHT22;5008;50.656;7.188;2023-12-20T21:00:45;8.60;99.90
9939;DHT22;5008;50.656;7.188;2023-12-20T21:03:13;8.60;99.90
9939;DHT22;5008;50.656;7.188;2023-12-20T21:05:40;8.60;99.90
9939;DHT22;5008;50.656;7.188;2023-12-20T21:08:07;8.60;99.90
9939;DHT22;5008;50.656;7.188;2023-12-20T21:10:34;8.60;99.90
9939;DHT22;5008;50.656;7.188;2023-12-20T21:13:01;8.60;99.90
9939;DHT22;5008;50.656;7.188;2023-12-20T21:15:29;8.80;99.90
9939;DHT22;5008;50.656;7.188;2023-12-20T21:17:56;9.00;99.90
9939;DHT22;5008;50.656;7.188;2023-12-20T21:20:22;9.00;99.90